createdAt,value
2023-01-27T05:41:58.656Z,-0.16
2023-01-27T05:47:00.401Z,-0.17
2023-01-27T05:52:02.085Z,-0.20
2023-01-27T05:57:03.684Z,0.01
2023-01-27T06:02:05.408Z,0.03
2023-01-27T06:07:07.089Z,0.03
2023-01-27T06:12:08.738Z,0.15
2023-01-27T06:17:17.503Z,0.24
2023-01-27T06:22:20.184Z,-0.02
2023-01-27T06:27:23.859Z,0.03
2023-01-27T06:32:25.593Z,0.16
2023-01-27T06:37:29.561Z,0.16
2023-01-27T06:42:31.831Z,0.23
2023-01-27T06:47:33.549Z,0.00
2023-01-27T06:52:35.596Z,0.13
2023-01-27T06:57:39.373Z,0.06
2023-01-27T07:02:41.086Z,0.08
2023-01-27T07:07:42.851Z,0.03
2023-01-27T07:12:46.372Z,0.04
2023-01-27T07:17:48.057Z,0.07
2023-01-27T07:22:49.704Z,0.06
2023-01-27T07:27:51.487Z,0.04
2023-01-27T07:32:55.229Z,0.21
2023-01-27T07:37:58.023Z,0.32
2023-01-27T07:43:03.414Z,0.16
2023-01-27T07:48:09.509Z,0.22
2023-01-27T07:53:11.962Z,0.14
2023-01-27T07:58:15.573Z,0.25
2023-01-27T08:03:23.167Z,0.25
2023-01-27T08:08:24.862Z,0.23
2023-01-27T08:13:29.340Z,0.21
2023-01-27T08:18:31.436Z,0.20
2023-01-27T08:23:35.544Z,0.35
2023-01-27T08:28:38.873Z,0.18
2023-01-27T08:33:42.931Z,0.40
2023-01-27T08:38:45.708Z,0.38
2023-01-27T08:43:49.473Z,0.55
2023-01-27T08:48:51.889Z,0.48
2023-01-27T08:53:53.721Z,0.45
2023-01-27T08:58:56.956Z,0.64
2023-01-27T09:03:58.664Z,0.66
2023-01-27T09:09:11.769Z,0.60
2023-01-27T09:14:14.154Z,0.51
2023-01-27T09:19:16.008Z,0.57
2023-01-27T09:24:19.432Z,0.64
2023-01-27T09:29:21.350Z,0.43
2023-01-27T09:34:29.823Z,0.65
2023-01-27T09:39:32.538Z,0.55
2023-01-27T09:45:07.865Z,0.56
2023-01-27T09:50:32.913Z,0.27
2023-01-27T09:55:45.994Z,0.48
2023-01-27T10:01:04.763Z,0.30
2023-01-27T10:06:35.009Z,0.53
2023-01-27T10:11:45.522Z,0.68
2023-01-27T10:17:14.118Z,0.76
2023-01-27T10:22:25.174Z,0.75
2023-01-27T10:27:39.964Z,0.76
2023-01-27T10:32:47.599Z,0.63
2023-01-27T10:38:07.573Z,0.79
2023-01-27T10:43:25.126Z,0.73
2023-01-27T10:48:46.615Z,0.66
2023-01-27T10:54:01.482Z,0.89
2023-01-27T10:59:26.631Z,0.96
2023-01-27T11:04:37.649Z,0.73
2023-01-27T11:09:49.280Z,0.71
2023-01-27T11:14:53.031Z,0.81
2023-01-27T11:20:30.962Z,0.96
2023-01-27T11:26:28.462Z,0.67
2023-01-27T11:31:57.071Z,1.03
2023-01-27T11:37:00.134Z,0.98
2023-01-27T11:42:01.916Z,1.04
2023-01-27T11:47:07.627Z,0.89
2023-01-27T11:52:15.595Z,0.84
2023-01-27T11:57:23.224Z,0.97
2023-01-27T12:02:44.726Z,1.00
2023-01-27T12:07:54.581Z,1.06
2023-01-27T12:13:01.633Z,1.18
2023-01-27T12:18:16.800Z,1.00
2023-01-27T12:23:26.803Z,0.92
2023-01-27T12:28:40.370Z,1.15
2023-01-27T12:33:49.486Z,1.25
2023-01-27T12:39:00.291Z,1.19
2023-01-27T12:44:15.528Z,1.21
2023-01-27T12:49:21.453Z,0.91
2023-01-27T12:54:32.474Z,1.07
2023-01-27T12:59:34.447Z,1.06
2023-01-27T13:04:37.488Z,0.93
2023-01-27T13:10:03.251Z,1.21
2023-01-27T13:15:07.269Z,1.01
2023-01-27T13:20:34.876Z,1.19
2023-01-27T13:26:04.417Z,1.27
2023-01-27T13:31:12.433Z,1.27
2023-01-27T13:36:20.168Z,1.32
2023-01-27T13:41:31.553Z,1.26
2023-01-27T13:46:38.554Z,1.06
2023-01-27T13:51:40.365Z,1.23
2023-01-27T13:57:02.135Z,1.16
2023-01-27T14:02:03.857Z,1.13
2023-01-27T14:07:25.776Z,1.15
2023-01-27T14:12:47.968Z,1.14
2023-01-27T14:18:12.372Z,1.15
2023-01-27T14:23:38.145Z,1.19
2023-01-27T14:29:02.191Z,1.14
2023-01-27T14:34:31.735Z,1.14
2023-01-27T14:39:42.336Z,1.31
2023-01-27T14:45:06.191Z,1.37
2023-01-27T14:50:38.514Z,1.16
2023-01-27T14:55:46.170Z,1.13
2023-01-27T15:01:09.687Z,0.96
2023-01-27T15:06:57.280Z,0.99
2023-01-27T15:12:18.145Z,1.07
2023-01-27T15:17:40.416Z,0.93
2023-01-27T15:23:04.150Z,0.75
2023-01-27T15:28:11.697Z,0.73
2023-01-27T15:33:51.328Z,0.90
2023-01-27T15:39:25.838Z,0.77
2023-01-27T15:44:33.468Z,0.90
2023-01-27T15:49:43.286Z,1.00
2023-01-27T15:54:50.331Z,1.03
2023-01-27T15:59:59.044Z,1.12
2023-01-27T16:05:09.644Z,1.16
2023-01-27T16:10:27.273Z,0.99
2023-01-27T16:15:36.437Z,0.98
2023-01-27T16:20:42.437Z,0.92
2023-01-27T16:26:12.412Z,1.06
2023-01-27T16:31:29.204Z,1.02
2023-01-27T16:36:34.892Z,0.73
2023-01-27T16:41:41.286Z,0.73
2023-01-27T16:46:47.288Z,0.85
2023-01-27T16:51:58.787Z,0.88
2023-01-27T16:57:11.144Z,0.54
2023-01-27T17:02:21.791Z,0.61
2023-01-27T17:07:27.902Z,0.60
2023-01-27T17:12:46.107Z,0.59
2023-01-27T17:17:51.820Z,0.57
2023-01-27T17:22:57.780Z,0.59
2023-01-27T17:28:01.257Z,0.69
2023-01-27T17:33:07.204Z,0.68
2023-01-27T17:38:24.675Z,0.69
2023-01-27T17:43:37.705Z,0.74
2023-01-27T17:48:42.191Z,0.70
2023-01-27T17:53:44.491Z,0.68
2023-01-27T17:58:54.689Z,0.67
2023-01-27T18:03:58.275Z,0.53
2023-01-27T18:09:14.630Z,0.49
2023-01-27T18:14:21.841Z,0.35
2023-01-27T18:19:27.921Z,0.35
2023-01-27T18:24:29.779Z,0.33
2023-01-27T18:34:58.280Z,0.40
2023-01-27T18:40:01.931Z,0.56
2023-01-27T18:45:03.936Z,-0.05
2023-01-27T18:50:11.370Z,0.47
2023-01-27T18:55:26.956Z,0.64
2023-01-27T19:00:37.571Z,0.35
2023-01-27T19:05:40.520Z,0.39
2023-01-27T19:10:42.549Z,0.35
2023-01-27T19:15:50.358Z,0.32
2023-01-27T19:20:52.389Z,0.24
2023-01-27T19:25:57.299Z,-0.06
2023-01-27T19:31:00.345Z,0.42
2023-01-27T19:36:20.931Z,0.47
2023-01-27T19:41:22.750Z,0.24
2023-01-27T19:46:24.705Z,0.45
2023-01-27T19:51:27.108Z,0.22
2023-01-27T19:56:31.904Z,0.26
2023-01-27T20:01:33.636Z,0.35
2023-01-27T20:06:35.376Z,0.22
2023-01-27T20:11:39.694Z,0.22
2023-01-27T20:16:42.988Z,0.15
2023-01-27T20:21:46.269Z,0.10
2023-01-27T20:26:48.109Z,0.26
2023-01-27T20:31:50.024Z,0.15
2023-01-27T20:36:51.754Z,0.08
2023-01-27T20:41:53.457Z,0.03
2023-01-27T20:46:55.183Z,-0.02
2023-01-27T20:51:57.131Z,-0.07
2023-01-27T20:56:58.802Z,0.04
2023-01-27T21:02:00.607Z,0.14
2023-01-27T21:07:02.435Z,0.01
2023-01-27T21:12:04.210Z,-0.10
2023-01-27T21:17:05.914Z,0.02
2023-01-27T21:22:07.617Z,-0.22
2023-01-27T21:27:09.287Z,-0.04
2023-01-27T21:33:29.449Z,-0.15
2023-01-27T21:38:32.527Z,-0.03
2023-01-27T21:43:52.626Z,-0.04
2023-01-27T21:48:54.282Z,0.00
2023-01-27T21:53:55.951Z,-0.15
2023-01-27T21:58:57.654Z,-0.22
2023-01-27T22:03:59.438Z,0.05
2023-01-27T22:09:01.154Z,0.02
2023-01-27T22:14:02.779Z,-0.13
2023-01-27T22:19:04.431Z,-0.15
2023-01-27T22:24:06.558Z,-0.15
2023-01-27T22:29:08.258Z,-0.26
2023-01-27T22:34:10.542Z,-0.21
2023-01-27T22:39:12.197Z,-0.28
2023-01-27T22:44:14.440Z,-0.22
2023-01-27T22:49:16.332Z,-0.20
2023-01-27T22:54:18.022Z,-0.09
2023-01-27T22:59:19.672Z,-0.23
2023-01-27T23:04:21.327Z,-0.29
2023-01-27T23:09:22.933Z,-0.26
2023-01-27T23:14:24.563Z,-0.34
2023-01-27T23:19:26.197Z,-0.17
2023-01-27T23:24:28.072Z,-0.13
2023-01-27T23:29:29.747Z,-0.03
2023-01-27T23:34:31.449Z,-0.06
2023-01-27T23:39:33.242Z,0.03
